Grand Luxe — WDD6093 — position and weather

sailwx.info

Track history (hours):
 
Tides and Currents Weather Stations Pressure Air Temp Water Temp Dewpoint Dewpoint Depression Visibility Wind Speed Wind Dir Waves Ship Positions

Grand Luxe

Owner: Expoships , LLLP, Bonita Springs, FL. More information available from US FCC via Universal Licensing System and Coast Guard Vessel Documentation Center.

Last reported at 2017-Oct-14 06:37 UTC. Time now 2017-Oct-20 12:42 UTC.
Position N 25°46' W 080°11'.

; draft 2.2 m.

MMSI: 367168190.

Date/timePositionNaut miles runAvg speedWind from/ knotsBaromVisibWave heightAir tempDewpointWater temp
2017-Oct-14 06:37N 25°46' W 080°11'0 0.0
2017-Oct-14 06:30N 25°46' W 080°11'1 1.9
2017-Oct-14 06:01N 25°45' W 080°11'3 5.0
2017-Oct-14 05:31N 25°43' W 080°12'1 1.3
2017-Oct-14 05:00N 25°42' W 080°12'1 2.1
2017-Oct-14 04:31N 25°43' W 080°11'2 4.4
2017-Oct-14 04:00N 25°46' W 080°11'1 1.5
2017-Oct-14 03:30N 25°46' W 080°11'0 0.0
2017-Oct-14 03:01N 25°46' W 080°11'0 0.0
2017-Oct-14 02:30N 25°46' W 080°11'0 0.0
2017-Oct-14 02:01N 25°46' W 080°11'0 0.0
2017-Oct-14 01:30N 25°46' W 080°11'0 0.0
2017-Oct-14 01:00N 25°46' W 080°11'0 0.0
2017-Oct-14 00:30N 25°46' W 080°11'0 0.0
2017-Oct-14 00:00N 25°46' W 080°11'0 0.0
2017-Oct-13 23:30N 25°46' W 080°11'0 0.0
2017-Oct-13 23:00N 25°46' W 080°11'0 0.0
2017-Oct-13 22:30N 25°46' W 080°11'0 0.0
2017-Oct-13 01:21N 25°46' W 080°11'0 0.7
2017-Oct-13 01:00N 25°46' W 080°11'2 4.0
2017-Oct-13 00:31N 25°44' W 080°11'1 1.3
2017-Oct-13 00:00N 25°43' W 080°11'0 0.7
2017-Oct-12 23:30N 25°44' W 080°11'2 4.6
2017-Oct-12 23:00N 25°46' W 080°11'0 0.5
2017-Oct-12 22:28N 25°46' W 080°11'0 0.0
2017-Oct-12 21:55N 25°46' W 080°11'0 0.0
2017-Oct-12 21:28N 25°46' W 080°11'0 0.0
2017-Oct-12 20:58N 25°46' W 080°11'0 0.0
2017-Oct-12 20:28N 25°46' W 080°11'0 0.0
2017-Oct-12 19:58N 25°46' W 080°11'0 0.0
2017-Oct-12 19:28N 25°46' W 080°11'  
Track history (hours):
 
Tides and Currents Weather Stations Pressure Air Temp Water Temp Dewpoint Dewpoint Depression Visibility Wind Speed Wind Dir Waves Ship Positions

Grand Luxe

Owner: Expoships , LLLP, Bonita Springs, FL. More information available from US FCC via Universal Licensing System and Coast Guard Vessel Documentation Center.

Last reported at 2017-Oct-14 06:37 UTC. Time now 2017-Oct-20 12:42 UTC.
Position N 25°46' W 080°11'.

; draft 2.2 m.

MMSI: 367168190.

Date/timePositionNaut miles runAvg speedWind from/ knotsBaromVisibWave heightAir tempDewpointWater temp
2017-Oct-14 06:37N 25°46' W 080°11'0 0.0
2017-Oct-14 06:30N 25°46' W 080°11'1 1.9
2017-Oct-14 06:01N 25°45' W 080°11'3 5.0
2017-Oct-14 05:31N 25°43' W 080°12'1 1.3
2017-Oct-14 05:00N 25°42' W 080°12'1 2.1
2017-Oct-14 04:31N 25°43' W 080°11'2 4.4
2017-Oct-14 04:00N 25°46' W 080°11'1 1.5
2017-Oct-14 03:30N 25°46' W 080°11'0 0.0
2017-Oct-14 03:01N 25°46' W 080°11'0 0.0
2017-Oct-14 02:30N 25°46' W 080°11'0 0.0
2017-Oct-14 02:01N 25°46' W 080°11'0 0.0
2017-Oct-14 01:30N 25°46' W 080°11'0 0.0
2017-Oct-14 01:00N 25°46' W 080°11'0 0.0
2017-Oct-14 00:30N 25°46' W 080°11'0 0.0
2017-Oct-14 00:00N 25°46' W 080°11'0 0.0
2017-Oct-13 23:30N 25°46' W 080°11'0 0.0
2017-Oct-13 23:00N 25°46' W 080°11'0 0.0
2017-Oct-13 22:30N 25°46' W 080°11'0 0.0
2017-Oct-13 01:21N 25°46' W 080°11'0 0.7
2017-Oct-13 01:00N 25°46' W 080°11'2 4.0
2017-Oct-13 00:31N 25°44' W 080°11'1 1.3
2017-Oct-13 00:00N 25°43' W 080°11'0 0.7
2017-Oct-12 23:30N 25°44' W 080°11'2 4.6
2017-Oct-12 23:00N 25°46' W 080°11'0 0.5
2017-Oct-12 22:28N 25°46' W 080°11'0 0.0
2017-Oct-12 21:55N 25°46' W 080°11'0 0.0
2017-Oct-12 21:28N 25°46' W 080°11'0 0.0
2017-Oct-12 20:58N 25°46' W 080°11'0 0.0
2017-Oct-12 20:28N 25°46' W 080°11'0 0.0
2017-Oct-12 19:58N 25°46' W 080°11'0 0.0
2017-Oct-12 19:28N 25°46' W 080°11'  

Dump ship's entire track history